sensor_id;sensor_type;location;lat;lon;timestamp;temperature;humidity
51855;DHT22;37895;53.240;6.572;2024-03-23T00:51:20;6.40;99.90
51855;DHT22;37895;53.240;6.572;2024-03-23T00:53:46;6.20;99.90
51855;DHT22;37895;53.240;6.572;2024-03-23T00:56:11;6.40;99.90
51855;DHT22;37895;53.240;6.572;2024-03-23T00:58:37;6.20;99.90
51855;DHT22;37895;53.240;6.572;2024-03-23T01:01:03;6.10;99.90
51855;DHT22;37895;53.240;6.572;2024-03-23T01:03:31;6.10;99.90
51855;DHT22;37895;53.240;6.572;2024-03-23T01:06:00;6.10;99.90
51855;DHT22;37895;53.240;6.572;2024-03-23T01:08:26;6.10;99.90
51855;DHT22;37895;53.240;6.572;2024-03-23T01:13:21;6.00;99.90
51855;DHT22;37895;53.240;6.572;2024-03-23T01:15:55;6.40;99.90
51855;DHT22;37895;53.240;6.572;2024-03-23T01:18:21;5.90;99.90
51855;DHT22;37895;53.240;6.572;2024-03-23T01:20:47;6.00;99.90
51855;DHT22;37895;53.240;6.572;2024-03-23T01:23:13;5.90;99.90
51855;DHT22;37895;53.240;6.572;2024-03-23T01:25:39;5.90;99.90
51855;DHT22;37895;53.240;6.572;2024-03-23T01:28:05;5.90;99.90
51855;DHT22;37895;53.240;6.572;2024-03-23T01:30:32;5.90;99.90
51855;DHT22;37895;53.240;6.572;2024-03-23T01:32:58;5.90;99.90
51855;DHT22;37895;53.240;6.572;2024-03-23T01:35:23;5.90;99.90
51855;DHT22;37895;53.240;6.572;2024-03-23T01:37:49;5.90;99.90
51855;DHT22;37895;53.240;6.572;2024-03-23T01:40:16;5.80;99.90
51855;DHT22;37895;53.240;6.572;2024-03-23T01:42:42;5.80;99.90
51855;DHT22;37895;53.240;6.572;2024-03-23T01:45:08;6.20;99.90
51855;DHT22;37895;53.240;6.572;2024-03-23T01:47:35;5.80;99.90
51855;DHT22;37895;53.240;6.572;2024-03-23T01:50:01;5.80;99.90
51855;DHT22;37895;53.240;6.572;2024-03-23T01:52:27;5.80;99.90
51855;DHT22;37895;53.240;6.572;2024-03-23T01:54:53;5.70;99.90
51855;DHT22;37895;53.240;6.572;2024-03-23T01:57:19;6.30;99.90
51855;DHT22;37895;53.240;6.572;2024-03-23T01:59:48;5.70;99.90
51855;DHT22;37895;53.240;6.572;2024-03-23T02:02:14;5.70;99.90
51855;DHT22;37895;53.240;6.572;2024-03-23T02:04:40;5.70;99.90
51855;DHT22;37895;53.240;6.572;2024-03-23T02:07:08;5.60;99.90
51855;DHT22;37895;53.240;6.572;2024-03-23T02:09:35;5.70;99.90
51855;DHT22;37895;53.240;6.572;2024-03-23T02:12:02;5.80;99.90
51855;DHT22;37895;53.240;6.572;2024-03-23T02:14:28;5.60;99.90
51855;DHT22;37895;53.240;6.572;2024-03-23T02:16:54;5.70;99.90
51855;DHT22;37895;53.240;6.572;2024-03-23T02:19:19;5.60;99.90
51855;DHT22;37895;53.240;6.572;2024-03-23T02:21:45;5.60;99.90
51855;DHT22;37895;53.240;6.572;2024-03-23T02:24:12;5.60;99.90
51855;DHT22;37895;53.240;6.572;2024-03-23T02:26:38;5.60;99.90
51855;DHT22;37895;53.240;6.572;2024-03-23T02:29:03;5.50;99.90
51855;DHT22;37895;53.240;6.572;2024-03-23T02:31:29;5.50;99.90
51855;DHT22;37895;53.240;6.572;2024-03-23T02:33:55;5.50;99.90
51855;DHT22;37895;53.240;6.572;2024-03-23T02:36:20;5.60;99.90
51855;DHT22;37895;53.240;6.572;2024-03-23T02:38:46;5.50;99.90
51855;DHT22;37895;53.240;6.572;2024-03-23T02:41:12;5.50;99.90
51855;DHT22;37895;53.240;6.572;2024-03-23T02:43:39;5.50;99.90
51855;DHT22;37895;53.240;6.572;2024-03-23T02:46:04;6.00;99.90
51855;DHT22;37895;53.240;6.572;2024-03-23T02:48:30;5.70;99.90
51855;DHT22;37895;53.240;6.572;2024-03-23T02:50:56;5.50;99.90
51855;DHT22;37895;53.240;6.572;2024-03-23T02:53:21;5.50;99.90
51855;DHT22;37895;53.240;6.572;2024-03-23T02:55:47;5.50;99.90
51855;DHT22;37895;53.240;6.572;2024-03-23T02:58:13;5.50;99.90
51855;DHT22;37895;53.240;6.572;2024-03-23T03:00:38;5.40;99.90
51855;DHT22;37895;53.240;6.572;2024-03-23T03:03:04;5.50;99.90
51855;DHT22;37895;53.240;6.572;2024-03-23T03:05:30;5.40;99.90
51855;DHT22;37895;53.240;6.572;2024-03-23T03:07:55;5.40;99.90
51855;DHT22;37895;53.240;6.572;2024-03-23T03:10:21;5.40;99.90
51855;DHT22;37895;53.240;6.572;2024-03-23T03:12:46;5.40;99.90
51855;DHT22;37895;53.240;6.572;2024-03-23T03:15:12;5.40;99.90
51855;DHT22;37895;53.240;6.572;2024-03-23T03:17:38;5.40;99.90
51855;DHT22;37895;53.240;6.572;2024-03-23T03:20:04;5.30;99.90
51855;DHT22;37895;53.240;6.572;2024-03-23T03:22:30;5.40;99.90
51855;DHT22;37895;53.240;6.572;2024-03-23T03:24:56;5.60;99.90
51855;DHT22;37895;53.240;6.572;2024-03-23T03:27:21;5.40;99.90
51855;DHT22;37895;53.240;6.572;2024-03-23T03:29:48;5.30;99.90
51855;DHT22;37895;53.240;6.572;2024-03-23T03:32:14;5.40;99.90
51855;DHT22;37895;53.240;6.572;2024-03-23T03:34:39;5.40;99.90
51855;DHT22;37895;53.240;6.572;2024-03-23T03:37:05;5.30;99.90
51855;DHT22;37895;53.240;6.572;2024-03-23T03:39:30;5.30;99.90
51855;DHT22;37895;53.240;6.572;2024-03-23T03:41:56;5.30;99.90
51855;DHT22;37895;53.240;6.572;2024-03-23T03:44:22;5.30;99.90
51855;DHT22;37895;53.240;6.572;2024-03-23T03:46:47;5.50;99.90
51855;DHT22;37895;53.240;6.572;2024-03-23T03:49:13;6.00;99.90
51855;DHT22;37895;53.240;6.572;2024-03-23T03:51:38;5.20;99.90
51855;DHT22;37895;53.240;6.572;2024-03-23T03:54:04;5.20;99.90
51855;DHT22;37895;53.240;6.572;2024-03-23T03:56:29;5.20;99.90
51855;DHT22;37895;53.240;6.572;2024-03-23T03:58:55;5.20;99.90
51855;DHT22;37895;53.240;6.572;2024-03-23T04:01:21;5.30;99.90
51855;DHT22;37895;53.240;6.572;2024-03-23T04:03:46;5.20;99.90
51855;DHT22;37895;53.240;6.572;2024-03-23T04:06:15;5.10;99.90
51855;DHT22;37895;53.240;6.572;2024-03-23T04:08:43;5.50;99.90
51855;DHT22;37895;53.240;6.572;2024-03-23T04:11:09;5.10;99.90
51855;DHT22;37895;53.240;6.572;2024-03-23T04:13:34;5.30;99.90
51855;DHT22;37895;53.240;6.572;2024-03-23T04:16:00;5.00;99.90
51855;DHT22;37895;53.240;6.572;2024-03-23T04:18:25;5.00;99.90
51855;DHT22;37895;53.240;6.572;2024-03-23T04:20:51;5.00;99.90
51855;DHT22;37895;53.240;6.572;2024-03-23T04:23:17;5.10;99.90
51855;DHT22;37895;53.240;6.572;2024-03-23T04:25:43;5.70;99.90
51855;DHT22;37895;53.240;6.572;2024-03-23T04:28:08;4.90;99.90
51855;DHT22;37895;53.240;6.572;2024-03-23T04:30:34;4.90;99.90
51855;DHT22;37895;53.240;6.572;2024-03-23T04:33:00;4.90;99.90
51855;DHT22;37895;53.240;6.572;2024-03-23T04:35:26;4.90;99.90
51855;DHT22;37895;53.240;6.572;2024-03-23T04:37:52;5.00;99.90
51855;DHT22;37895;53.240;6.572;2024-03-23T04:40:18;5.10;99.90
51855;DHT22;37895;53.240;6.572;2024-03-23T04:42:44;5.50;99.90
51855;DHT22;37895;53.240;6.572;2024-03-23T04:45:09;4.90;99.90
51855;DHT22;37895;53.240;6.572;2024-03-23T04:47:36;4.80;99.90
51855;DHT22;37895;53.240;6.572;2024-03-23T04:50:03;5.10;99.90
51855;DHT22;37895;53.240;6.572;2024-03-23T04:52:29;4.80;99.90
51855;DHT22;37895;53.240;6.572;2024-03-23T04:54:54;5.20;99.90
51855;DHT22;37895;53.240;6.572;2024-03-23T04:57:20;5.00;99.90
51855;DHT22;37895;53.240;6.572;2024-03-23T04:59:46;4.80;99.90
51855;DHT22;37895;53.240;6.572;2024-03-23T05:02:12;4.80;99.90
51855;DHT22;37895;53.240;6.572;2024-03-23T05:04:38;4.80;99.90
51855;DHT22;37895;53.240;6.572;2024-03-23T05:07:04;4.80;99.90
51855;DHT22;37895;53.240;6.572;2024-03-23T05:09:30;4.80;99.90
51855;DHT22;37895;53.240;6.572;2024-03-23T05:11:56;4.90;99.90
51855;DHT22;37895;53.240;6.572;2024-03-23T05:14:22;4.70;99.90
51855;DHT22;37895;53.240;6.572;2024-03-23T05:16:48;5.30;99.90
51855;DHT22;37895;53.240;6.572;2024-03-23T05:19:13;4.70;99.90
51855;DHT22;37895;53.240;6.572;2024-03-23T05:21:39;4.70;99.90
51855;DHT22;37895;53.240;6.572;2024-03-23T05:24:05;4.70;99.90
51855;DHT22;37895;53.240;6.572;2024-03-23T05:26:30;4.70;99.90
51855;DHT22;37895;53.240;6.572;2024-03-23T05:28:56;4.70;99.90
51855;DHT22;37895;53.240;6.572;2024-03-23T05:31:26;4.80;99.90
51855;DHT22;37895;53.240;6.572;2024-03-23T05:33:51;5.30;99.90
51855;DHT22;37895;53.240;6.572;2024-03-23T05:36:17;4.70;99.90
51855;DHT22;37895;53.240;6.572;2024-03-23T05:38:43;5.10;99.90
51855;DHT22;37895;53.240;6.572;2024-03-23T05:41:09;4.70;99.90
51855;DHT22;37895;53.240;6.572;2024-03-23T05:43:34;4.70;99.90
51855;DHT22;37895;53.240;6.572;2024-03-23T05:46:00;4.60;99.90
51855;DHT22;37895;53.240;6.572;2024-03-23T05:48:27;4.60;99.90
51855;DHT22;37895;53.240;6.572;2024-03-23T05:50:53;4.70;99.90
51855;DHT22;37895;53.240;6.572;2024-03-23T05:53:20;5.50;99.90
51855;DHT22;37895;53.240;6.572;2024-03-23T05:55:46;4.70;99.90
51855;DHT22;37895;53.240;6.572;2024-03-23T05:58:14;4.80;99.90
51855;DHT22;37895;53.240;6.572;2024-03-23T06:00:40;4.80;99.90
51855;DHT22;37895;53.240;6.572;2024-03-23T06:03:06;5.00;99.90
51855;DHT22;37895;53.240;6.572;2024-03-23T06:05:31;5.00;99.90
51855;DHT22;37895;53.240;6.572;2024-03-23T06:07:57;5.80;99.90
51855;DHT22;37895;53.240;6.572;2024-03-23T06:10:23;5.20;99.90
51855;DHT22;37895;53.240;6.572;2024-03-23T06:12:48;5.20;99.90
51855;DHT22;37895;53.240;6.572;2024-03-23T06:15:15;5.40;99.90
51855;DHT22;37895;53.240;6.572;2024-03-23T06:17:41;5.50;99.90
51855;DHT22;37895;53.240;6.572;2024-03-23T06:20:07;5.60;99.90
51855;DHT22;37895;53.240;6.572;2024-03-23T06:22:33;5.60;99.90
51855;DHT22;37895;53.240;6.572;2024-03-23T06:24:59;5.50;99.90
51855;DHT22;37895;53.240;6.572;2024-03-23T06:27:24;5.60;99.90
51855;DHT22;37895;53.240;6.572;2024-03-23T06:29:50;5.50;99.90
51855;DHT22;37895;53.240;6.572;2024-03-23T06:32:16;5.50;99.90
51855;DHT22;37895;53.240;6.572;2024-03-23T06:34:42;5.50;99.90
51855;DHT22;37895;53.240;6.572;2024-03-23T06:37:07;5.60;99.90
51855;DHT22;37895;53.240;6.572;2024-03-23T06:39:35;5.60;99.90
51855;DHT22;37895;53.240;6.572;2024-03-23T06:42:01;5.60;99.90
51855;DHT22;37895;53.240;6.572;2024-03-23T06:44:27;5.60;99.90
51855;DHT22;37895;53.240;6.572;2024-03-23T06:46:52;5.60;99.90
51855;DHT22;37895;53.240;6.572;2024-03-23T06:49:18;6.30;99.90
51855;DHT22;37895;53.240;6.572;2024-03-23T06:51:45;5.60;99.90
51855;DHT22;37895;53.240;6.572;2024-03-23T06:54:10;5.70;99.90
51855;DHT22;37895;53.240;6.572;2024-03-23T06:56:36;5.80;99.90
51855;DHT22;37895;53.240;6.572;2024-03-23T06:59:02;6.00;99.90
51855;DHT22;37895;53.240;6.572;2024-03-23T07:01:27;6.10;99.90
51855;DHT22;37895;53.240;6.572;2024-03-23T07:03:54;6.20;99.90
51855;DHT22;37895;53.240;6.572;2024-03-23T07:06:20;6.30;99.90
51855;DHT22;37895;53.240;6.572;2024-03-23T07:08:45;6.30;99.90
51855;DHT22;37895;53.240;6.572;2024-03-23T07:11:11;6.30;99.90
51855;DHT22;37895;53.240;6.572;2024-03-23T07:13:37;6.40;99.90
51855;DHT22;37895;53.240;6.572;2024-03-23T07:16:02;6.50;99.90
51855;DHT22;37895;53.240;6.572;2024-03-23T07:18:28;6.60;99.90
51855;DHT22;37895;53.240;6.572;2024-03-23T07:20:54;6.70;99.90
51855;DHT22;37895;53.240;6.572;2024-03-23T07:23:22;6.80;99.90
51855;DHT22;37895;53.240;6.572;2024-03-23T07:26:00;6.80;99.90
51855;DHT22;37895;53.240;6.572;2024-03-23T07:28:26;6.60;99.90
51855;DHT22;37895;53.240;6.572;2024-03-23T07:33:27;6.40;99.90
51855;DHT22;37895;53.240;6.572;2024-03-23T07:35:53;6.50;99.90
51855;DHT22;37895;53.240;6.572;2024-03-23T07:38:19;6.20;99.90
51855;DHT22;37895;53.240;6.572;2024-03-23T07:40:46;6.20;99.90
51855;DHT22;37895;53.240;6.572;2024-03-23T07:43:11;6.10;99.90
51855;DHT22;37895;53.240;6.572;2024-03-23T07:45:37;6.10;99.90
51855;DHT22;37895;53.240;6.572;2024-03-23T07:48:04;6.20;99.90
51855;DHT22;37895;53.240;6.572;2024-03-23T07:50:30;6.20;99.90
51855;DHT22;37895;53.240;6.572;2024-03-23T07:52:55;6.20;99.90
51855;DHT22;37895;53.240;6.572;2024-03-23T07:55:21;6.30;99.90
51855;DHT22;37895;53.240;6.572;2024-03-23T07:57:47;6.30;99.90
51855;DHT22;37895;53.240;6.572;2024-03-23T08:00:13;6.40;99.90
51855;DHT22;37895;53.240;6.572;2024-03-23T08:02:39;6.60;99.90
51855;DHT22;37895;53.240;6.572;2024-03-23T08:05:04;6.80;99.90
51855;DHT22;37895;53.240;6.572;2024-03-23T08:07:30;7.10;99.90
51855;DHT22;37895;53.240;6.572;2024-03-23T08:09:56;7.20;99.90
51855;DHT22;37895;53.240;6.572;2024-03-23T08:12:21;7.30;99.90
51855;DHT22;37895;53.240;6.572;2024-03-23T08:14:47;7.30;99.90
51855;DHT22;37895;53.240;6.572;2024-03-23T08:17:12;7.40;99.90
51855;DHT22;37895;53.240;6.572;2024-03-23T08:19:38;7.10;99.90
51855;DHT22;37895;53.240;6.572;2024-03-23T08:22:04;7.00;99.90
51855;DHT22;37895;53.240;6.572;2024-03-23T08:24:29;6.90;99.90
51855;DHT22;37895;53.240;6.572;2024-03-23T08:26:55;6.70;99.90
51855;DHT22;37895;53.240;6.572;2024-03-23T08:29:21;6.60;99.90
51855;DHT22;37895;53.240;6.572;2024-03-23T08:31:46;6.50;99.90
51855;DHT22;37895;53.240;6.572;2024-03-23T08:34:12;6.60;99.90
51855;DHT22;37895;53.240;6.572;2024-03-23T08:36:38;6.50;99.90
51855;DHT22;37895;53.240;6.572;2024-03-23T08:39:03;6.60;99.90
51855;DHT22;37895;53.240;6.572;2024-03-23T08:41:29;6.70;99.90
51855;DHT22;37895;53.240;6.572;2024-03-23T08:43:55;6.90;99.90
51855;DHT22;37895;53.240;6.572;2024-03-23T08:46:21;6.90;99.90
51855;DHT22;37895;53.240;6.572;2024-03-23T08:48:47;7.00;99.90
51855;DHT22;37895;53.240;6.572;2024-03-23T08:51:15;7.00;99.90
51855;DHT22;37895;53.240;6.572;2024-03-23T08:53:41;7.10;99.90
51855;DHT22;37895;53.240;6.572;2024-03-23T08:56:07;7.30;99.90
51855;DHT22;37895;53.240;6.572;2024-03-23T08:58:34;7.20;99.90
51855;DHT22;37895;53.240;6.572;2024-03-23T09:01:11;7.40;99.90
51855;DHT22;37895;53.240;6.572;2024-03-23T09:03:39;7.70;99.90
51855;DHT22;37895;53.240;6.572;2024-03-23T09:06:12;7.90;99.90
51855;DHT22;37895;53.240;6.572;2024-03-23T09:08:38;8.20;99.90
51855;DHT22;37895;53.240;6.572;2024-03-23T09:11:07;8.40;99.90
51855;DHT22;37895;53.240;6.572;2024-03-23T09:13:37;8.50;99.90
51855;DHT22;37895;53.240;6.572;2024-03-23T09:16:04;8.60;99.90
51855;DHT22;37895;53.240;6.572;2024-03-23T09:18:32;8.60;99.90
51855;DHT22;37895;53.240;6.572;2024-03-23T09:20:58;8.80;99.90
51855;DHT22;37895;53.240;6.572;2024-03-23T09:23:23;8.90;99.90
51855;DHT22;37895;53.240;6.572;2024-03-23T09:25:49;9.00;99.90
51855;DHT22;37895;53.240;6.572;2024-03-23T09:28:15;9.10;99.90
51855;DHT22;37895;53.240;6.572;2024-03-23T09:30:40;9.00;99.90
51855;DHT22;37895;53.240;6.572;2024-03-23T09:33:10;9.10;99.90
51855;DHT22;37895;53.240;6.572;2024-03-23T09:35:39;8.50;99.90
51855;DHT22;37895;53.240;6.572;2024-03-23T09:38:05;7.80;99.90
51855;DHT22;37895;53.240;6.572;2024-03-23T09:40:33;7.10;99.90
51855;DHT22;37895;53.240;6.572;2024-03-23T09:42:58;6.70;99.90
51855;DHT22;37895;53.240;6.572;2024-03-23T09:45:28;6.40;99.90
51855;DHT22;37895;53.240;6.572;2024-03-23T09:47:57;6.50;99.90
51855;DHT22;37895;53.240;6.572;2024-03-23T09:50:23;5.90;99.90
51855;DHT22;37895;53.240;6.572;2024-03-23T09:52:49;5.80;99.90
51855;DHT22;37895;53.240;6.572;2024-03-23T09:55:15;5.80;99.90
51855;DHT22;37895;53.240;6.572;2024-03-23T09:57:41;5.70;99.90
51855;DHT22;37895;53.240;6.572;2024-03-23T10:00:07;5.70;99.90
51855;DHT22;37895;53.240;6.572;2024-03-23T10:02:34;5.80;99.90
51855;DHT22;37895;53.240;6.572;2024-03-23T10:05:00;5.80;99.90
51855;DHT22;37895;53.240;6.572;2024-03-23T10:07:26;5.80;99.90
51855;DHT22;37895;53.240;6.572;2024-03-23T10:09:54;5.80;99.90
51855;DHT22;37895;53.240;6.572;2024-03-23T10:12:20;6.00;99.90
51855;DHT22;37895;53.240;6.572;2024-03-23T10:14:46;6.10;99.90
51855;DHT22;37895;53.240;6.572;2024-03-23T10:17:14;6.30;99.90
51855;DHT22;37895;53.240;6.572;2024-03-23T10:19:55;6.50;99.90
51855;DHT22;37895;53.240;6.572;2024-03-23T10:22:22;6.70;99.90
51855;DHT22;37895;53.240;6.572;2024-03-23T10:24:49;6.90;99.90
51855;DHT22;37895;53.240;6.572;2024-03-23T10:27:15;7.10;99.90
51855;DHT22;37895;53.240;6.572;2024-03-23T10:29:40;7.30;99.90
51855;DHT22;37895;53.240;6.572;2024-03-23T10:32:10;7.60;99.90
51855;DHT22;37895;53.240;6.572;2024-03-23T10:34:37;7.90;99.90
51855;DHT22;37895;53.240;6.572;2024-03-23T10:37:03;8.20;99.90
51855;DHT22;37895;53.240;6.572;2024-03-23T10:39:37;8.30;99.90
51855;DHT22;37895;53.240;6.572;2024-03-23T10:42:04;8.40;99.90
51855;DHT22;37895;53.240;6.572;2024-03-23T10:44:30;8.40;99.90
51855;DHT22;37895;53.240;6.572;2024-03-23T10:47:00;8.60;99.90
51855;DHT22;37895;53.240;6.572;2024-03-23T10:49:31;8.60;99.90
51855;DHT22;37895;53.240;6.572;2024-03-23T10:52:04;8.80;99.90
51855;DHT22;37895;53.240;6.572;2024-03-23T10:54:31;9.00;99.90
51855;DHT22;37895;53.240;6.572;2024-03-23T10:57:01;9.20;99.90
51855;DHT22;37895;53.240;6.572;2024-03-23T10:59:29;9.40;99.90
51855;DHT22;37895;53.240;6.572;2024-03-23T11:01:57;9.40;99.90
51855;DHT22;37895;53.240;6.572;2024-03-23T11:04:49;9.30;99.90
51855;DHT22;37895;53.240;6.572;2024-03-23T11:09:53;8.50;99.90
51855;DHT22;37895;53.240;6.572;2024-03-23T11:15:04;7.50;99.90
51855;DHT22;37895;53.240;6.572;2024-03-23T11:17:30;7.30;99.90
51855;DHT22;37895;53.240;6.572;2024-03-23T11:20:06;7.10;99.90
51855;DHT22;37895;53.240;6.572;2024-03-23T11:25:19;7.30;99.90
51855;DHT22;37895;53.240;6.572;2024-03-23T11:27:50;7.50;99.90
51855;DHT22;37895;53.240;6.572;2024-03-23T11:30:26;7.70;99.90
51855;DHT22;37895;53.240;6.572;2024-03-23T11:32:56;7.20;99.90
51855;DHT22;37895;53.240;6.572;2024-03-23T11:38:22;8.40;99.90
51855;DHT22;37895;53.240;6.572;2024-03-23T11:40:49;8.60;99.90
51855;DHT22;37895;53.240;6.572;2024-03-23T11:43:16;8.70;99.90
51855;DHT22;37895;53.240;6.572;2024-03-23T11:45:49;8.70;99.90
51855;DHT22;37895;53.240;6.572;2024-03-23T11:48:23;8.80;99.90
51855;DHT22;37895;53.240;6.572;2024-03-23T11:50:57;8.90;99.90
51855;DHT22;37895;53.240;6.572;2024-03-23T11:53:24;8.90;99.90
51855;DHT22;37895;53.240;6.572;2024-03-23T11:55:50;8.80;99.90
51855;DHT22;37895;53.240;6.572;2024-03-23T11:58:18;8.60;99.90
51855;DHT22;37895;53.240;6.572;2024-03-23T12:00:59;8.60;99.90
51855;DHT22;37895;53.240;6.572;2024-03-23T12:03:27;8.70;99.90
51855;DHT22;37895;53.240;6.572;2024-03-23T12:05:59;8.70;99.90
51855;DHT22;37895;53.240;6.572;2024-03-23T12:08:36;8.70;99.90
51855;DHT22;37895;53.240;6.572;2024-03-23T12:11:14;8.70;99.90
51855;DHT22;37895;53.240;6.572;2024-03-23T12:13:41;8.70;99.90
51855;DHT22;37895;53.240;6.572;2024-03-23T12:16:20;8.80;99.90
51855;DHT22;37895;53.240;6.572;2024-03-23T12:18:47;8.90;99.90
51855;DHT22;37895;53.240;6.572;2024-03-23T12:21:14;8.80;99.90
51855;DHT22;37895;53.240;6.572;2024-03-23T12:23:40;8.60;99.90
51855;DHT22;37895;53.240;6.572;2024-03-23T12:26:06;8.50;99.90
51855;DHT22;37895;53.240;6.572;2024-03-23T12:28:32;8.20;99.90
51855;DHT22;37895;53.240;6.572;2024-03-23T12:30:58;7.90;99.90
51855;DHT22;37895;53.240;6.572;2024-03-23T12:33:24;7.90;99.90
51855;DHT22;37895;53.240;6.572;2024-03-23T12:35:52;7.50;99.90
51855;DHT22;37895;53.240;6.572;2024-03-23T12:38:19;7.40;99.90
51855;DHT22;37895;53.240;6.572;2024-03-23T12:40:48;7.30;99.90
51855;DHT22;37895;53.240;6.572;2024-03-23T12:43:14;7.30;99.90
51855;DHT22;37895;53.240;6.572;2024-03-23T12:45:40;7.50;99.90
51855;DHT22;37895;53.240;6.572;2024-03-23T12:48:06;7.90;99.90
51855;DHT22;37895;53.240;6.572;2024-03-23T12:50:32;7.90;99.90
51855;DHT22;37895;53.240;6.572;2024-03-23T12:52:57;8.20;99.90
51855;DHT22;37895;53.240;6.572;2024-03-23T12:55:23;8.40;99.90
51855;DHT22;37895;53.240;6.572;2024-03-23T12:57:49;8.60;99.90
51855;DHT22;37895;53.240;6.572;2024-03-23T13:00:14;8.30;99.90
51855;DHT22;37895;53.240;6.572;2024-03-23T13:02:42;8.20;99.90
51855;DHT22;37895;53.240;6.572;2024-03-23T13:05:08;8.40;99.90
51855;DHT22;37895;53.240;6.572;2024-03-23T13:07:34;8.00;99.90
51855;DHT22;37895;53.240;6.572;2024-03-23T13:10:00;8.10;99.90
51855;DHT22;37895;53.240;6.572;2024-03-23T13:12:26;8.20;99.90
51855;DHT22;37895;53.240;6.572;2024-03-23T13:14:52;8.40;99.90
51855;DHT22;37895;53.240;6.572;2024-03-23T13:17:18;8.60;99.90
51855;DHT22;37895;53.240;6.572;2024-03-23T13:19:44;8.70;99.90
51855;DHT22;37895;53.240;6.572;2024-03-23T13:22:09;8.90;99.90
51855;DHT22;37895;53.240;6.572;2024-03-23T13:24:38;9.00;99.90
51855;DHT22;37895;53.240;6.572;2024-03-23T13:27:04;8.90;99.90
51855;DHT22;37895;53.240;6.572;2024-03-23T13:29:34;8.90;99.90
51855;DHT22;37895;53.240;6.572;2024-03-23T13:32:00;9.20;99.90
51855;DHT22;37895;53.240;6.572;2024-03-23T13:34:26;9.00;99.90
51855;DHT22;37895;53.240;6.572;2024-03-23T13:36:51;9.00;99.90
51855;DHT22;37895;53.240;6.572;2024-03-23T13:39:17;9.00;99.90
51855;DHT22;37895;53.240;6.572;2024-03-23T13:41:44;9.00;99.90
51855;DHT22;37895;53.240;6.572;2024-03-23T13:44:13;8.80;99.90
51855;DHT22;37895;53.240;6.572;2024-03-23T13:46:42;8.60;99.90
51855;DHT22;37895;53.240;6.572;2024-03-23T13:49:24;8.50;99.90
51855;DHT22;37895;53.240;6.572;2024-03-23T13:51:50;8.30;99.90
51855;DHT22;37895;53.240;6.572;2024-03-23T13:54:16;8.20;99.90
51855;DHT22;37895;53.240;6.572;2024-03-23T13:56:42;8.10;99.90
51855;DHT22;37895;53.240;6.572;2024-03-23T13:59:07;8.00;99.90
51855;DHT22;37895;53.240;6.572;2024-03-23T14:01:33;8.00;99.90
51855;DHT22;37895;53.240;6.572;2024-03-23T14:03:59;8.00;99.90
51855;DHT22;37895;53.240;6.572;2024-03-23T14:06:24;7.90;99.90
51855;DHT22;37895;53.240;6.572;2024-03-23T14:08:50;7.90;99.90
51855;DHT22;37895;53.240;6.572;2024-03-23T14:11:18;8.00;99.90
51855;DHT22;37895;53.240;6.572;2024-03-23T14:13:43;8.30;99.90
51855;DHT22;37895;53.240;6.572;2024-03-23T14:16:09;8.40;99.90
51855;DHT22;37895;53.240;6.572;2024-03-23T14:18:35;8.60;99.90
51855;DHT22;37895;53.240;6.572;2024-03-23T14:21:01;8.70;99.90
51855;DHT22;37895;53.240;6.572;2024-03-23T14:23:27;8.90;99.90
51855;DHT22;37895;53.240;6.572;2024-03-23T14:25:55;8.80;99.90
51855;DHT22;37895;53.240;6.572;2024-03-23T14:28:22;8.60;99.90
51855;DHT22;37895;53.240;6.572;2024-03-23T14:30:48;8.50;99.90
51855;DHT22;37895;53.240;6.572;2024-03-23T14:33:15;8.50;99.90
51855;DHT22;37895;53.240;6.572;2024-03-23T14:35:41;8.50;99.90
51855;DHT22;37895;53.240;6.572;2024-03-23T14:38:06;8.60;99.90
51855;DHT22;37895;53.240;6.572;2024-03-23T14:40:33;8.80;99.90
51855;DHT22;37895;53.240;6.572;2024-03-23T14:42:58;8.90;99.90
51855;DHT22;37895;53.240;6.572;2024-03-23T14:45:24;9.00;99.90
51855;DHT22;37895;53.240;6.572;2024-03-23T14:47:53;9.00;99.90
51855;DHT22;37895;53.240;6.572;2024-03-23T14:50:19;9.00;99.90
51855;DHT22;37895;53.240;6.572;2024-03-23T14:52:45;9.00;99.90
51855;DHT22;37895;53.240;6.572;2024-03-23T14:55:11;9.00;99.90
51855;DHT22;37895;53.240;6.572;2024-03-23T14:57:38;8.90;99.90
51855;DHT22;37895;53.240;6.572;2024-03-23T15:00:08;8.90;99.90
51855;DHT22;37895;53.240;6.572;2024-03-23T15:02:36;8.90;99.90
51855;DHT22;37895;53.240;6.572;2024-03-23T15:05:02;9.00;99.90
51855;DHT22;37895;53.240;6.572;2024-03-23T15:07:33;9.00;99.90
51855;DHT22;37895;53.240;6.572;2024-03-23T15:09:58;9.00;99.90
51855;DHT22;37895;53.240;6.572;2024-03-23T15:12:24;9.10;99.90
51855;DHT22;37895;53.240;6.572;2024-03-23T15:14:49;9.10;99.90
51855;DHT22;37895;53.240;6.572;2024-03-23T15:17:15;9.20;99.90
51855;DHT22;37895;53.240;6.572;2024-03-23T15:19:41;9.30;99.90
51855;DHT22;37895;53.240;6.572;2024-03-23T15:22:08;9.30;99.90
51855;DHT22;37895;53.240;6.572;2024-03-23T15:24:34;9.40;99.90
51855;DHT22;37895;53.240;6.572;2024-03-23T15:27:03;9.40;99.90
51855;DHT22;37895;53.240;6.572;2024-03-23T15:29:28;9.50;99.90
51855;DHT22;37895;53.240;6.572;2024-03-23T15:31:54;9.50;99.90
51855;DHT22;37895;53.240;6.572;2024-03-23T15:34:20;9.40;99.90
51855;DHT22;37895;53.240;6.572;2024-03-23T15:36:47;9.50;99.90
51855;DHT22;37895;53.240;6.572;2024-03-23T15:39:14;9.40;99.90
51855;DHT22;37895;53.240;6.572;2024-03-23T15:41:40;9.30;99.90
51855;DHT22;37895;53.240;6.572;2024-03-23T15:44:06;9.20;99.90
51855;DHT22;37895;53.240;6.572;2024-03-23T15:46:31;9.10;99.90
51855;DHT22;37895;53.240;6.572;2024-03-23T15:48:57;8.90;99.90
51855;DHT22;37895;53.240;6.572;2024-03-23T15:51:23;8.80;99.90
51855;DHT22;37895;53.240;6.572;2024-03-23T15:53:49;8.70;99.90
51855;DHT22;37895;53.240;6.572;2024-03-23T15:56:17;8.60;99.90
51855;DHT22;37895;53.240;6.572;2024-03-23T15:58:43;8.60;99.90
51855;DHT22;37895;53.240;6.572;2024-03-23T16:01:09;8.50;99.90
51855;DHT22;37895;53.240;6.572;2024-03-23T16:03:36;8.40;99.90
51855;DHT22;37895;53.240;6.572;2024-03-23T16:06:04;8.40;99.90
51855;DHT22;37895;53.240;6.572;2024-03-23T16:08:30;8.40;99.90
51855;DHT22;37895;53.240;6.572;2024-03-23T16:11:00;8.40;99.90
51855;DHT22;37895;53.240;6.572;2024-03-23T16:13:26;8.40;99.90
51855;DHT22;37895;53.240;6.572;2024-03-23T16:16:01;8.40;99.90
51855;DHT22;37895;53.240;6.572;2024-03-23T16:18:29;8.40;99.90
51855;DHT22;37895;53.240;6.572;2024-03-23T16:21:03;8.60;99.90
51855;DHT22;37895;53.240;6.572;2024-03-23T16:23:29;8.40;99.90
51855;DHT22;37895;53.240;6.572;2024-03-23T16:25:55;8.40;99.90
51855;DHT22;37895;53.240;6.572;2024-03-23T16:28:34;8.30;99.90
51855;DHT22;37895;53.240;6.572;2024-03-23T16:31:07;8.30;99.90
51855;DHT22;37895;53.240;6.572;2024-03-23T16:33:37;8.40;99.90
51855;DHT22;37895;53.240;6.572;2024-03-23T16:36:07;8.30;99.90
51855;DHT22;37895;53.240;6.572;2024-03-23T16:38:34;8.20;99.90
51855;DHT22;37895;53.240;6.572;2024-03-23T16:41:04;8.20;99.90
51855;DHT22;37895;53.240;6.572;2024-03-23T16:43:32;8.20;99.90
51855;DHT22;37895;53.240;6.572;2024-03-23T16:46:03;8.20;99.90
51855;DHT22;37895;53.240;6.572;2024-03-23T16:48:29;8.10;99.90